Time;durP1;ratioP1;P1;durP2;ratioP2;P2;SDS_P1;SDS_P2;PMS_P1;PMS_P2;Temp;Humidity;BMP_temperature;BMP_pressure;BME280_temperature;BME280_humidity;BME280_pressure;Samples;Min_cycle;Max_cycle;Signal;HPM_P1;HPM_P2
2021/01/31 00:02:22;;;;;;;2.30;2.10;;;-1.80;99.90;;;;;;5025628;28;20773;-78
2021/01/31 00:04:48;;;;;;;4.10;2.30;;;-1.80;99.90;;;;;;5026697;28;20286;-80
2021/01/31 00:07:17;;;;;;;2.87;1.77;;;-1.80;99.90;;;;;;5025748;28;20182;-78
2021/01/31 00:09:43;;;;;;;2.03;1.70;;;-1.80;99.90;;;;;;5025327;28;20246;-78
2021/01/31 00:12:10;;;;;;;1.77;1.60;;;-1.90;99.90;;;;;;5025471;28;20202;-76
2021/01/31 00:14:36;;;;;;;2.80;2.20;;;-1.90;99.90;;;;;;5026804;28;20249;-76
2021/01/31 00:17:02;;;;;;;2.27;2.00;;;-2.00;99.90;;;;;;5042268;28;20210;-81
2021/01/31 00:19:28;;;;;;;2.33;2.13;;;-2.00;99.90;;;;;;5025249;28;21273;-76
2021/01/31 00:21:59;;;;;;;2.80;1.60;;;-2.00;99.90;;;;;;5025670;28;20211;-79
2021/01/31 00:24:24;;;;;;;2.20;1.83;;;-1.90;99.90;;;;;;5026497;28;20183;-77
2021/01/31 00:26:50;;;;;;;2.87;2.50;;;-1.90;99.90;;;;;;5024972;28;20273;-75
2021/01/31 00:29:16;;;;;;;1.90;1.73;;;-2.00;99.90;;;;;;5025944;28;20289;-80
2021/01/31 00:31:44;;;;;;;2.33;1.97;;;-2.00;99.90;;;;;;5026275;28;20190;-76
2021/01/31 00:34:10;;;;;;;1.37;1.10;;;-1.90;99.90;;;;;;5026086;28;20278;-78
2021/01/31 00:36:35;;;;;;;4.17;1.70;;;-1.80;99.90;;;;;;5026764;28;20691;-79
2021/01/31 00:39:01;;;;;;;1.70;1.57;;;-1.80;99.90;;;;;;5025219;28;20182;-78
2021/01/31 00:41:27;;;;;;;1.90;1.67;;;-1.80;99.90;;;;;;5024683;28;20198;-81
2021/01/31 00:43:52;;;;;;;1.50;1.40;;;-1.80;99.90;;;;;;5024681;28;20333;-78
2021/01/31 00:46:18;;;;;;;1.73;1.37;;;-1.80;99.90;;;;;;5024701;28;20202;-79
2021/01/31 00:48:43;;;;;;;1.30;1.20;;;-1.80;99.90;;;;;;5026005;28;20185;-81
2021/01/31 00:51:09;;;;;;;1.40;1.27;;;-1.90;99.90;;;;;;5025977;28;20187;-82
2021/01/31 00:53:34;;;;;;;2.77;2.47;;;-1.90;99.90;;;;;;5024699;28;20187;-79
2021/01/31 00:56:00;;;;;;;1.13;1.03;;;-1.90;99.90;;;;;;5024415;28;20200;-78
2021/01/31 00:58:26;;;;;;;1.43;1.23;;;-1.90;99.90;;;;;;5024433;28;20210;-80
2021/01/31 01:00:51;;;;;;;1.50;1.40;;;-2.00;99.90;;;;;;5025050;28;20219;-79
2021/01/31 01:03:17;;;;;;;1.77;1.53;;;-1.90;99.90;;;;;;5025973;28;20198;-77
2021/01/31 01:05:42;;;;;;;2.17;1.53;;;-2.00;99.90;;;;;;5024284;28;20242;-77
2021/01/31 01:08:08;;;;;;;1.73;1.40;;;-2.00;99.90;;;;;;5024298;28;20179;-79
2021/01/31 01:10:35;;;;;;;2.53;2.03;;;-2.00;99.90;;;;;;5024109;28;20257;-78
2021/01/31 01:13:03;;;;;;;2.30;1.60;;;-2.00;99.90;;;;;;5025945;28;20186;-80
2021/01/31 01:15:30;;;;;;;2.17;1.63;;;-2.00;99.90;;;;;;5025455;28;20268;-76
2021/01/31 01:17:56;;;;;;;1.23;1.23;;;-2.00;99.90;;;;;;5025974;28;20185;-77
2021/01/31 01:20:22;;;;;;;1.40;0.60;;;-2.00;99.90;;;;;;5023988;28;20187;-77
2021/01/31 01:22:48;;;;;;;1.33;1.17;;;-2.00;99.90;;;;;;5025838;28;20190;-77
2021/01/31 01:25:16;;;;;;;1.43;1.17;;;-2.00;99.90;;;;;;5024604;28;20760;-77
2021/01/31 01:27:41;;;;;;;3.70;1.50;;;-2.00;99.90;;;;;;5025606;28;20179;-77
2021/01/31 01:30:10;;;;;;;1.10;0.80;;;-2.00;99.90;;;;;;5023995;28;20190;-76
2021/01/31 01:32:37;;;;;;;2.40;1.33;;;-2.00;99.90;;;;;;5024323;28;21131;-75
2021/01/31 01:35:04;;;;;;;1.40;1.30;;;-2.10;99.90;;;;;;5025403;28;20218;-81
2021/01/31 01:37:30;;;;;;;1.77;1.00;;;-2.10;99.90;;;;;;5025596;28;20183;-79
2021/01/31 01:39:56;;;;;;;1.20;1.10;;;-2.10;99.90;;;;;;5023965;28;20187;-77
2021/01/31 01:42:21;;;;;;;2.63;1.60;;;-2.10;99.90;;;;;;5025014;28;20744;-78
2021/01/31 01:44:47;;;;;;;1.30;1.20;;;-2.20;99.90;;;;;;5025988;28;20218;-75
2021/01/31 01:47:23;;;;;;;3.57;1.97;;;-2.30;99.90;;;;;;5025158;28;20175;-78
2021/01/31 01:50:04;;;;;;;1.47;1.37;;;-2.40;99.90;;;;;;5025134;28;20186;-78
2021/01/31 01:52:35;;;;;;;1.70;1.60;;;-2.50;99.90;;;;;;5023402;28;20233;-77
2021/01/31 01:55:16;;;;;;;1.47;1.30;;;-2.50;99.90;;;;;;5025409;28;20205;-77
2021/01/31 01:58:00;;;;;;;2.07;1.87;;;-2.60;99.90;;;;;;5025212;28;20186;-82
2021/01/31 02:00:26;;;;;;;1.37;1.23;;;-2.60;99.90;;;;;;5039498;28;20233;-79
2021/01/31 02:03:08;;;;;;;1.50;1.13;;;-2.70;99.90;;;;;;5023809;28;20198;-81
2021/01/31 02:05:36;;;;;;;1.70;1.20;;;-2.70;99.90;;;;;;5023765;28;20202;-79
2021/01/31 02:08:03;;;;;;;1.43;1.30;;;-2.80;99.90;;;;;;5023624;28;20722;-76
2021/01/31 02:10:28;;;;;;;2.73;2.23;;;-2.90;99.90;;;;;;5023286;28;20171;-78
2021/01/31 02:12:58;;;;;;;1.20;1.10;;;-2.90;99.90;;;;;;5023383;28;20190;-77
2021/01/31 02:15:24;;;;;;;2.23;1.47;;;-2.90;99.90;;;;;;5024954;28;20198;-79
2021/01/31 02:18:05;;;;;;;2.17;1.63;;;-2.90;99.90;;;;;;5023519;28;20245;-79
2021/01/31 02:21:04;;;;;;;1.03;0.87;;;-2.90;99.90;;;;;;5023772;28;20178;-80
2021/01/31 02:23:52;;;;;;;1.87;1.43;;;-3.10;99.90;;;;;;5026351;28;20261;-81
2021/01/31 02:26:44;;;;;;;1.57;1.40;;;-3.10;99.90;;;;;;5023592;28;20915;-78
2021/01/31 02:29:37;;;;;;;2.30;1.50;;;-3.20;99.90;;;;;;5023452;28;20545;-82
2021/01/31 02:32:12;;;;;;;1.57;1.20;;;-3.20;99.90;;;;;;5023336;28;20286;-79
2021/01/31 02:34:47;;;;;;;1.60;1.50;;;-3.30;99.90;;;;;;5026444;28;20289;-75
2021/01/31 02:37:30;;;;;;;1.73;1.60;;;-3.40;99.90;;;;;;5027172;28;20704;-78
2021/01/31 02:40:28;;;;;;;1.20;1.10;;;-3.50;99.90;;;;;;5028540;28;20193;-76
2021/01/31 02:43:03;;;;;;;1.30;1.20;;;-3.60;99.90;;;;;;5028152;28;20282;-78
2021/01/31 02:45:45;;;;;;;2.27;1.63;;;-3.60;99.90;;;;;;5028116;28;20206;-76
2021/01/31 02:48:23;;;;;;;1.13;0.90;;;-3.80;99.90;;;;;;5027360;28;20182;-76
2021/01/31 02:51:05;;;;;;;2.10;1.37;;;-3.90;99.90;;;;;;5026941;28;20178;-79
2021/01/31 02:53:36;;;;;;;1.53;1.43;;;-4.00;99.90;;;;;;5029221;28;20182;-78
2021/01/31 02:56:23;;;;;;;1.63;1.53;;;-4.10;99.90;;;;;;5028828;28;20281;-75
2021/01/31 02:59:00;;;;;;;0.73;0.73;;;-4.20;99.90;;;;;;5043747;28;20183;-80
2021/01/31 03:01:41;;;;;;;1.53;1.20;;;-4.30;99.90;;;;;;5027651;28;20274;-76
2021/01/31 03:04:26;;;;;;;2.03;1.63;;;-4.50;99.90;;;;;;5028865;28;20190;-76
2021/01/31 03:06:57;;;;;;;1.60;1.10;;;-4.60;99.90;;;;;;5043408;28;20182;-78
2021/01/31 03:10:04;;;;;;;1.87;1.50;;;-4.70;99.90;;;;;;5028266;28;20250;-78
2021/01/31 03:13:05;;;;;;;1.63;1.23;;;-4.80;99.90;;;;;;4985775;28;20180;-79
2021/01/31 03:15:36;;;;;;;2.30;1.20;;;-4.90;99.90;;;;;;4985441;28;20208;-81
2021/01/31 03:18:17;;;;;;;1.93;0.97;;;-5.00;99.90;;;;;;5018607;28;20199;-78
2021/01/31 03:20:53;;;;;;;1.80;1.37;;;-4.90;99.90;;;;;;5027623;28;20259;-80
2021/01/31 03:23:37;;;;;;;4.83;1.53;;;-5.00;99.90;;;;;;5028351;28;20179;-81
2021/01/31 03:26:16;;;;;;;0.73;0.60;;;-5.30;99.90;;;;;;5028433;28;20321;-80
2021/01/31 03:28:42;;;;;;;0.83;0.80;;;-5.30;99.90;;;;;;5028570;28;20282;-81
2021/01/31 03:31:09;;;;;;;0.80;0.80;;;-5.40;99.90;;;;;;5027858;28;20282;-79
2021/01/31 03:33:45;;;;;;;1.00;0.67;;;-5.50;99.90;;;;;;5025899;28;20630;-79
2021/01/31 03:36:11;;;;;;;1.13;1.03;;;-5.60;99.90;;;;;;5025558;28;20213;-79
2021/01/31 03:38:41;;;;;;;0.93;0.90;;;-5.80;99.90;;;;;;5027427;28;20183;-80
2021/01/31 03:41:11;;;;;;;2.73;1.30;;;-5.80;99.90;;;;;;5026865;28;20207;-80
2021/01/31 03:43:37;;;;;;;1.83;1.00;;;-5.90;99.90;;;;;;5027736;28;20701;-80
2021/01/31 03:46:21;;;;;;;1.03;0.97;;;-6.00;99.90;;;;;;5028005;28;20305;-76
2021/01/31 03:48:59;;;;;;;1.43;1.33;;;-6.00;99.90;;;;;;5027256;28;20210;-80
2021/01/31 03:51:26;;;;;;;1.13;0.90;;;-5.90;99.90;;;;;;5027463;28;20799;-79
2021/01/31 03:53:52;;;;;;;0.53;0.47;;;-6.00;99.90;;;;;;5026852;28;20210;-79
2021/01/31 03:56:25;;;;;;;0.30;0.30;;;-6.00;99.90;;;;;;5026996;28;20685;-81
2021/01/31 03:58:53;;;;;;;1.07;1.00;;;-6.10;99.90;;;;;;5026706;28;20182;-81
2021/01/31 04:01:23;;;;;;;2.03;1.30;;;-6.20;99.90;;;;;;5027597;28;20804;-80
2021/01/31 04:03:54;;;;;;;1.70;1.07;;;-6.30;99.90;;;;;;5028004;28;20175;-79
2021/01/31 04:06:24;;;;;;;1.80;1.23;;;-6.20;99.90;;;;;;5027729;28;20195;-81
2021/01/31 04:08:55;;;;;;;1.73;0.63;;;-6.20;99.90;;;;;;5027648;28;20222;-79
2021/01/31 04:11:42;;;;;;;1.30;1.20;;;-6.20;99.90;;;;;;5042640;28;20190;-78
2021/01/31 04:14:18;;;;;;;0.80;0.80;;;-6.20;99.90;;;;;;5028313;28;20191;-80
2021/01/31 04:16:47;;;;;;;1.07;0.93;;;-6.20;99.90;;;;;;5025818;28;20710;-80
2021/01/31 04:19:14;;;;;;;1.50;1.40;;;-6.30;99.90;;;;;;5027926;28;20174;-80
2021/01/31 04:21:39;;;;;;;1.20;1.10;;;-6.30;99.90;;;;;;5026440;28;20227;-80
2021/01/31 04:24:06;;;;;;;0.80;0.63;;;-6.50;99.90;;;;;;5027916;28;20179;-82
2021/01/31 04:26:32;;;;;;;1.97;1.47;;;-6.50;99.90;;;;;;5026089;28;20202;-80
2021/01/31 04:28:58;;;;;;;3.07;1.40;;;-6.40;99.90;;;;;;5026553;28;20178;-79
2021/01/31 04:31:28;;;;;;;0.90;0.90;;;-6.60;99.90;;;;;;5026783;28;20281;-79
2021/01/31 04:33:54;;;;;;;2.63;0.97;;;-6.70;99.90;;;;;;5028762;28;20219;-79
2021/01/31 04:36:21;;;;;;;2.27;1.13;;;-6.90;99.90;;;;;;5025591;28;20241;-79
2021/01/31 04:38:47;;;;;;;1.80;1.53;;;-6.90;99.90;;;;;;5027710;28;20297;-81
2021/01/31 04:41:13;;;;;;;2.47;1.77;;;-6.90;99.90;;;;;;5025746;28;20228;-80
2021/01/31 04:43:38;;;;;;;2.13;1.20;;;-6.90;99.90;;;;;;5026305;28;20671;-79
2021/01/31 04:46:08;;;;;;;0.30;0.30;;;-6.90;99.90;;;;;;5026068;28;20205;-79
2021/01/31 04:48:55;;;;;;;0.57;0.50;;;-6.90;99.90;;;;;;5025367;28;20178;-80
2021/01/31 04:51:52;;;;;;;1.23;1.10;;;-7.00;99.90;;;;;;5026901;28;20617;-79
2021/01/31 04:54:23;;;;;;;1.03;0.73;;;-7.10;99.90;;;;;;5042399;28;20266;-81
2021/01/31 04:56:52;;;;;;;1.43;1.00;;;-7.10;99.90;;;;;;5026959;28;20190;-83
2021/01/31 04:59:47;;;;;;;1.07;1.00;;;-7.20;99.90;;;;;;5026737;28;20266;-81
2021/01/31 05:02:29;;;;;;;0.67;0.67;;;-7.10;99.90;;;;;;5025854;28;20643;-81
2021/01/31 05:04:57;;;;;;;1.33;0.70;;;-7.10;99.90;;;;;;5027305;28;20190;-82
2021/01/31 05:07:43;;;;;;;2.07;1.40;;;-7.10;99.90;;;;;;5026512;28;20218;-82
2021/01/31 05:10:11;;;;;;;1.60;1.23;;;-7.20;99.90;;;;;;5026844;28;20175;-79
2021/01/31 05:12:47;;;;;;;2.07;1.23;;;-7.20;99.90;;;;;;5027200;28;20186;-79
2021/01/31 05:15:23;;;;;;;2.20;1.87;;;-7.20;99.90;;;;;;5026998;28;20194;-78
2021/01/31 05:17:52;;;;;;;1.40;0.67;;;-7.20;99.90;;;;;;5026509;28;20270;-81
2021/01/31 05:20:21;;;;;;;1.10;0.90;;;-7.20;99.90;;;;;;5026767;28;20183;-84
2021/01/31 05:22:51;;;;;;;1.37;1.00;;;-7.20;99.90;;;;;;5025415;28;20269;-79
2021/01/31 05:25:24;;;;;;;0.70;0.70;;;-7.30;99.90;;;;;;5027562;28;20911;-79
2021/01/31 05:27:54;;;;;;;1.50;1.23;;;-7.40;99.90;;;;;;5025535;28;20181;-82
2021/01/31 05:30:20;;;;;;;0.80;0.80;;;-7.50;99.90;;;;;;5027242;28;20202;-82
2021/01/31 05:33:07;;;;;;;0.90;0.83;;;-7.60;99.90;;;;;;5026859;28;20240;-80
2021/01/31 05:36:21;;;;;;;0.83;0.83;;;-7.70;99.90;;;;;;5042656;28;20257;-82
2021/01/31 05:38:49;;;;;;;1.00;0.87;;;-7.70;99.90;;;;;;5023899;28;20248;-81
2021/01/31 05:41:47;;;;;;;0.57;0.57;;;-7.70;99.90;;;;;;5026092;28;20886;-80
2021/01/31 05:44:16;;;;;;;0.90;0.70;;;-7.80;99.90;;;;;;5025576;28;20944;-80
2021/01/31 05:46:52;;;;;;;1.20;1.10;;;-7.80;99.90;;;;;;5026323;28;20597;-81
2021/01/31 05:49:35;;;;;;;2.53;0.77;;;-7.80;99.90;;;;;;5026704;28;20185;-79
2021/01/31 05:52:02;;;;;;;1.37;0.60;;;-7.90;99.90;;;;;;5025409;28;20178;-79
2021/01/31 05:54:36;;;;;;;0.67;0.67;;;-8.00;99.90;;;;;;5026623;28;20663;-80
2021/01/31 05:57:03;;;;;;;1.60;1.17;;;-8.00;99.90;;;;;;5027153;28;20194;-80
2021/01/31 05:59:40;;;;;;;0.87;0.87;;;-7.90;99.90;;;;;;5026639;28;20179;-77
2021/01/31 06:02:06;;;;;;;0.77;0.73;;;-7.80;99.90;;;;;;5027014;28;20765;-81
2021/01/31 06:04:32;;;;;;;1.20;0.93;;;-7.90;99.90;;;;;;5026024;28;20199;-79
2021/01/31 06:07:14;;;;;;;0.60;0.60;;;-7.80;99.90;;;;;;5026868;28;20229;-80
2021/01/31 06:09:48;;;;;;;5.17;1.60;;;-7.80;99.90;;;;;;5045195;28;20210;-79
2021/01/31 06:12:19;;;;;;;3.70;0.97;;;-7.90;99.90;;;;;;5031156;28;20186;-82
2021/01/31 06:14:49;;;;;;;2.33;1.33;;;-7.80;99.90;;;;;;5029518;28;20240;-80
2021/01/31 06:17:24;;;;;;;2.23;0.80;;;-7.90;99.90;;;;;;5031098;28;20183;-80
2021/01/31 06:19:57;;;;;;;2.00;0.90;;;-7.90;99.90;;;;;;5028858;28;20182;-80
2021/01/31 06:22:41;;;;;;;0.80;0.80;;;-8.00;99.90;;;;;;5028764;28;20232;-79
2021/01/31 06:25:12;;;;;;;1.13;0.60;;;-8.00;99.90;;;;;;5030348;28;20726;-79
2021/01/31 06:27:37;;;;;;;1.60;1.27;;;-8.10;99.90;;;;;;5030244;28;20175;-80
2021/01/31 06:30:20;;;;;;;0.90;0.83;;;-8.10;99.90;;;;;;5030364;28;20167;-78
2021/01/31 06:32:49;;;;;;;1.93;0.97;;;-8.20;99.90;;;;;;5026586;28;20199;-77
2021/01/31 06:35:17;;;;;;;1.17;1.07;;;-8.30;99.90;;;;;;5030071;28;20293;-80
2021/01/31 06:38:09;;;;;;;1.30;0.93;;;-8.20;99.90;;;;;;5045194;28;20183;-80
2021/01/31 06:41:14;;;;;;;0.83;0.80;;;-8.30;99.90;;;;;;5030165;28;20264;-81
2021/01/31 06:43:54;;;;;;;0.60;0.60;;;-8.30;99.90;;;;;;5019988;28;20687;-78
2021/01/31 06:46:47;;;;;;;0.77;0.77;;;-8.30;99.90;;;;;;5029878;28;20207;-80
2021/01/31 06:49:43;;;;;;;1.80;1.50;;;-8.30;99.90;;;;;;5029403;28;20201;-78
2021/01/31 06:52:48;;;;;;;0.60;0.60;;;-8.20;99.90;;;;;;5028115;28;20195;-78
2021/01/31 06:55:35;;;;;;;1.97;1.63;;;-8.00;99.90;;;;;;5029751;28;20293;-78
2021/01/31 06:58:26;;;;;;;1.00;0.97;;;-8.00;99.90;;;;;;5028170;28;20179;-81
2021/01/31 07:00:51;;;;;;;1.00;1.00;;;-8.10;99.90;;;;;;5029468;28;20210;-77
2021/01/31 07:03:39;;;;;;;1.37;1.00;;;-8.00;99.90;;;;;;5029288;28;20754;-80
2021/01/31 07:06:20;;;;;;;1.70;1.10;;;-8.10;99.90;;;;;;5029459;28;20209;-78
2021/01/31 07:09:07;;;;;;;1.83;0.70;;;-8.20;99.90;;;;;;5028113;28;20209;-78
2021/01/31 07:11:47;;;;;;;0.30;0.30;;;-8.20;99.90;;;;;;5028995;28;20206;-78
2021/01/31 07:14:22;;;;;;;0.60;0.60;;;-8.20;99.90;;;;;;5021936;28;20245;-77
2021/01/31 07:16:55;;;;;;;0.50;0.50;;;-8.20;99.90;;;;;;5029176;28;20209;-78
2021/01/31 07:19:56;;;;;;;1.30;1.00;;;-8.10;99.90;;;;;;5027471;28;20182;-78
2021/01/31 07:22:46;;;;;;;2.53;1.17;;;-8.20;99.90;;;;;;5020978;28;20223;-81
2021/01/31 07:25:18;;;;;;;2.00;1.10;;;-8.20;99.90;;;;;;5027856;28;20273;-78
2021/01/31 07:28:06;;;;;;;1.80;0.83;;;-8.20;99.90;;;;;;5027016;28;20194;-77
2021/01/31 07:30:40;;;;;;;1.47;1.37;;;-8.30;99.90;;;;;;5026069;28;20193;-79
2021/01/31 07:33:16;;;;;;;1.73;1.30;;;-8.30;99.90;;;;;;5027876;28;20262;-80
2021/01/31 07:36:08;;;;;;;0.73;0.73;;;-8.30;99.90;;;;;;5029331;28;20209;-79
2021/01/31 07:39:09;;;;;;;1.43;0.60;;;-8.40;99.90;;;;;;5028760;28;20245;-80
2021/01/31 07:41:39;;;;;;;3.17;1.07;;;-8.40;99.90;;;;;;5029419;28;20190;-79
2021/01/31 07:44:10;;;;;;;0.70;0.70;;;-8.30;99.90;;;;;;5028773;28;20190;-79
2021/01/31 07:46:37;;;;;;;1.13;0.93;;;-8.50;99.90;;;;;;5028994;28;20194;-79
2021/01/31 07:49:05;;;;;;;4.87;1.60;;;-8.50;99.90;;;;;;5027166;28;20226;-78
2021/01/31 07:51:36;;;;;;;0.80;0.80;;;-8.50;99.90;;;;;;5027299;28;20207;-80
2021/01/31 07:54:22;;;;;;;1.87;1.50;;;-8.40;99.90;;;;;;5028169;28;20202;-80
2021/01/31 07:56:49;;;;;;;2.10;1.30;;;-8.30;99.90;;;;;;5027265;28;20186;-82
2021/01/31 07:59:15;;;;;;;2.73;1.50;;;-8.20;99.90;;;;;;5026785;28;20187;-78
2021/01/31 08:01:40;;;;;;;0.70;0.70;;;-8.10;99.90;;;;;;5028108;28;20206;-78
2021/01/31 08:04:15;;;;;;;3.27;1.83;;;-8.00;99.90;;;;;;5027891;28;20256;-79
2021/01/31 08:06:41;;;;;;;1.83;0.90;;;-7.90;99.90;;;;;;5028332;28;20178;-79
2021/01/31 08:09:07;;;;;;;1.60;0.80;;;-7.70;99.90;;;;;;5027768;28;20202;-78
2021/01/31 08:11:39;;;;;;;1.77;1.33;;;-7.60;99.90;;;;;;5027648;28;20203;-80
2021/01/31 08:14:09;;;;;;;2.17;1.90;;;-7.50;99.90;;;;;;5028109;28;20187;-80
2021/01/31 08:16:44;;;;;;;1.33;1.23;;;-7.50;99.90;;;;;;5026486;28;20241;-79
2021/01/31 08:19:10;;;;;;;1.60;0.70;;;-7.30;99.90;;;;;;5042807;28;20179;-78
2021/01/31 08:22:00;;;;;;;1.83;1.73;;;-7.20;99.90;;;;;;5027464;28;20212;-79
2021/01/31 08:24:56;;;;;;;2.20;1.20;;;-7.10;99.90;;;;;;5026495;28;20189;-79
2021/01/31 08:27:37;;;;;;;2.07;1.67;;;-7.00;99.90;;;;;;5026470;28;20190;-77
2021/01/31 08:30:25;;;;;;;1.27;0.83;;;-6.80;99.90;;;;;;5026766;28;20281;-79
2021/01/31 08:32:57;;;;;;;7.57;2.50;;;-6.80;99.90;;;;;;5027594;28;20272;-78
2021/01/31 08:35:24;;;;;;;4.10;3.00;;;-6.60;99.90;;;;;;5025508;28;20294;-80
2021/01/31 08:37:52;;;;;;;1.97;1.30;;;-6.40;99.90;;;;;;5023192;28;20221;-76
2021/01/31 08:40:21;;;;;;;1.83;1.73;;;-6.40;99.90;;;;;;5025416;28;20178;-75
2021/01/31 08:42:52;;;;;;;0.97;0.90;;;-6.20;99.90;;;;;;5028540;28;20270;-81
2021/01/31 08:45:17;;;;;;;1.17;1.07;;;-6.10;99.90;;;;;;5025965;28;20289;-80
2021/01/31 08:47:43;;;;;;;1.63;1.53;;;-5.90;99.90;;;;;;5024023;28;20328;-78
2021/01/31 08:50:09;;;;;;;3.00;1.80;;;-5.80;99.90;;;;;;5022759;28;20281;-80
2021/01/31 08:52:36;;;;;;;3.17;2.10;;;-5.70;99.90;;;;;;5023639;28;20213;-80
2021/01/31 08:55:05;;;;;;;3.00;1.90;;;-5.60;99.90;;;;;;5024262;28;20249;-81
2021/01/31 08:57:31;;;;;;;2.97;1.33;;;-5.70;99.90;;;;;;5025266;28;20198;-79
2021/01/31 09:00:03;;;;;;;1.80;1.60;;;-6.00;99.90;;;;;;5025709;28;20191;-79
2021/01/31 09:02:28;;;;;;;1.60;1.50;;;-6.00;99.90;;;;;;5039724;28;20870;-81
2021/01/31 09:04:54;;;;;;;1.23;1.20;;;-6.10;99.90;;;;;;5025371;28;20209;-81
2021/01/31 09:07:21;;;;;;;2.07;1.60;;;-6.10;99.90;;;;;;5023646;28;20213;-79
2021/01/31 09:09:53;;;;;;;1.40;1.30;;;-6.00;99.90;;;;;;5025266;28;20213;-79
2021/01/31 09:12:22;;;;;;;3.93;1.43;;;-6.00;99.90;;;;;;5040190;28;20573;-80
2021/01/31 09:14:50;;;;;;;2.60;2.00;;;-6.00;99.90;;;;;;5024902;28;21382;-80
2021/01/31 09:17:26;;;;;;;1.67;1.57;;;-5.90;99.90;;;;;;5025478;28;20523;-79
2021/01/31 09:20:24;;;;;;;2.83;2.07;;;-5.80;99.90;;;;;;5025280;28;20625;-80
2021/01/31 09:22:51;;;;;;;1.90;1.70;;;-5.80;99.90;;;;;;5024589;28;20688;-78
2021/01/31 09:25:19;;;;;;;2.83;2.17;;;-5.80;99.90;;;;;;5023555;28;20268;-79
2021/01/31 09:28:00;;;;;;;4.33;2.63;;;-5.70;99.90;;;;;;5024669;28;20201;-78
2021/01/31 09:30:27;;;;;;;1.83;1.10;;;-5.50;99.90;;;;;;5023701;28;20288;-79
2021/01/31 09:32:58;;;;;;;2.33;1.33;;;-5.30;99.90;;;;;;5024903;28;20268;-78
2021/01/31 09:35:31;;;;;;;2.37;1.40;;;-5.20;99.90;;;;;;5025044;28;20862;-81
2021/01/31 09:38:19;;;;;;;1.23;1.07;;;-5.20;99.90;;;;;;5023908;28;20221;-81
2021/01/31 09:40:46;;;;;;;1.83;1.73;;;-5.10;99.90;;;;;;5022786;28;20416;-80
2021/01/31 09:43:17;;;;;;;3.73;3.03;;;-5.00;99.90;;;;;;5024386;28;20214;-79
2021/01/31 09:45:51;;;;;;;1.30;1.00;;;-4.80;99.90;;;;;;5024924;28;20218;-80
2021/01/31 09:48:20;;;;;;;2.30;1.77;;;-4.70;99.90;;;;;;5022469;28;20692;-79
2021/01/31 09:50:55;;;;;;;3.33;2.97;;;-4.60;99.90;;;;;;5022919;28;20278;-81
2021/01/31 09:53:39;;;;;;;2.93;2.13;;;-4.40;99.90;;;;;;5025129;28;20167;-79
2021/01/31 09:56:11;;;;;;;1.73;1.57;;;-4.40;99.90;;;;;;5024240;28;20225;-80
2021/01/31 09:58:46;;;;;;;6.87;1.07;;;-4.30;99.90;;;;;;5024899;28;20668;-81
2021/01/31 10:01:26;;;;;;;4.07;1.83;;;-4.40;99.90;;;;;;5023705;28;20241;-81
2021/01/31 10:04:01;;;;;;;3.67;1.70;;;-4.20;99.90;;;;;;5025053;28;20298;-79
2021/01/31 10:06:32;;;;;;;2.30;1.93;;;-4.20;99.90;;;;;;5024160;28;20341;-79
2021/01/31 10:09:01;;;;;;;4.43;2.30;;;-4.20;99.90;;;;;;5022613;28;20175;-78
2021/01/31 10:11:45;;;;;;;5.37;1.70;;;-4.10;99.90;;;;;;5022234;28;20218;-78
2021/01/31 10:14:39;;;;;;;2.10;1.90;;;-4.10;99.90;;;;;;5022870;28;20873;-80
2021/01/31 10:17:32;;;;;;;2.33;1.40;;;-4.20;99.90;;;;;;5022126;28;20170;-76
2021/01/31 10:20:28;;;;;;;5.50;2.53;;;-4.10;99.90;;;;;;5020878;28;20194;-77
2021/01/31 10:23:13;;;;;;;1.50;1.30;;;-4.00;99.90;;;;;;5021745;28;20182;-79
2021/01/31 10:25:42;;;;;;;2.87;2.17;;;-4.00;99.90;;;;;;5022553;28;20304;-77
2021/01/31 10:28:10;;;;;;;2.80;1.77;;;-3.80;99.90;;;;;;5023976;28;20288;-80
2021/01/31 10:30:36;;;;;;;3.93;2.27;;;-3.70;99.90;;;;;;5021704;28;20671;-79
2021/01/31 10:33:02;;;;;;;2.17;1.70;;;-3.70;99.90;;;;;;5022529;28;20560;-80
2021/01/31 10:35:39;;;;;;;2.17;2.03;;;-3.50;99.90;;;;;;5023791;28;20198;-79
2021/01/31 10:38:30;;;;;;;2.23;2.03;;;-3.40;99.90;;;;;;5021364;28;20258;-79
2021/01/31 10:40:56;;;;;;;4.10;2.20;;;-3.40;99.90;;;;;;5023590;28;20232;-79
2021/01/31 10:43:24;;;;;;;2.87;2.10;;;-3.20;99.90;;;;;;5022377;28;20183;-79
2021/01/31 10:45:50;;;;;;;2.50;2.27;;;-3.20;99.90;;;;;;5024245;28;20199;-79
2021/01/31 10:48:15;;;;;;;2.50;1.97;;;-3.10;99.90;;;;;;5022062;28;20631;-79
2021/01/31 10:50:41;;;;;;;2.70;2.47;;;-3.10;99.90;;;;;;5023209;28;20222;-81
2021/01/31 10:53:07;;;;;;;2.57;2.27;;;-3.00;99.90;;;;;;5023306;28;20612;-78
2021/01/31 10:55:32;;;;;;;2.30;1.80;;;-3.00;99.90;;;;;;5024638;28;20203;-75
2021/01/31 10:57:58;;;;;;;2.30;2.00;;;-2.90;99.90;;;;;;5027360;28;20206;-80
2021/01/31 11:00:23;;;;;;;1.90;1.50;;;-2.80;99.90;;;;;;5027137;28;20419;-77
2021/01/31 11:02:49;;;;;;;3.00;2.33;;;-2.70;99.90;;;;;;5026864;28;20658;-80
2021/01/31 11:05:16;;;;;;;5.80;3.83;;;-2.70;99.90;;;;;;5027296;28;20202;-78
2021/01/31 11:07:41;;;;;;;5.70;2.87;;;-2.60;99.90;;;;;;5027483;28;20254;-79
2021/01/31 11:10:09;;;;;;;3.83;2.83;;;-2.60;99.90;;;;;;5025731;28;20273;-76
2021/01/31 11:12:34;;;;;;;3.50;2.03;;;-2.70;99.90;;;;;;5025702;28;20301;-79
2021/01/31 11:15:00;;;;;;;1.57;1.47;;;-2.80;99.90;;;;;;5025458;28;20293;-78
2021/01/31 11:17:25;;;;;;;4.23;3.30;;;-2.80;99.90;;;;;;5025463;28;20189;-78
2021/01/31 11:19:51;;;;;;;3.27;2.27;;;-2.80;99.90;;;;;;5026841;28;20219;-81
2021/01/31 11:22:17;;;;;;;4.57;3.67;;;-2.70;99.90;;;;;;5025165;28;20190;-76
2021/01/31 11:24:44;;;;;;;3.97;2.43;;;-2.70;99.90;;;;;;5025699;28;20602;-80
2021/01/31 11:27:10;;;;;;;2.87;2.43;;;-2.80;99.90;;;;;;5027979;28;20264;-78
2021/01/31 11:29:36;;;;;;;3.00;1.50;;;-2.80;99.90;;;;;;5028715;28;20195;-77
2021/01/31 11:32:01;;;;;;;2.37;2.20;;;-3.00;99.90;;;;;;5027137;28;20619;-80
2021/01/31 11:34:27;;;;;;;3.00;2.67;;;-3.00;99.90;;;;;;5028203;28;21054;-80
2021/01/31 11:36:53;;;;;;;1.70;1.50;;;-3.00;99.90;;;;;;5027504;28;20193;-80
2021/01/31 11:39:18;;;;;;;1.53;1.27;;;-2.90;99.90;;;;;;5026549;28;20217;-76
2021/01/31 11:41:44;;;;;;;2.37;1.77;;;-3.00;99.90;;;;;;5025096;28;20182;-77
2021/01/31 11:44:10;;;;;;;1.73;1.47;;;-3.00;99.90;;;;;;5024536;28;20626;-76
2021/01/31 11:46:36;;;;;;;1.90;1.40;;;-2.90;99.90;;;;;;5025126;28;20186;-75
2021/01/31 11:49:03;;;;;;;1.13;1.03;;;-3.00;99.90;;;;;;5027928;28;20191;-80
2021/01/31 11:51:29;;;;;;;2.50;1.93;;;-3.10;99.90;;;;;;5025605;28;20202;-78
2021/01/31 11:53:55;;;;;;;1.17;1.07;;;-3.10;99.90;;;;;;5027977;28;20680;-79
2021/01/31 11:56:21;;;;;;;2.60;1.80;;;-3.20;99.90;;;;;;5029925;28;20217;-82
2021/01/31 11:58:47;;;;;;;2.70;2.33;;;-3.30;99.90;;;;;;5029315;28;20186;-78
2021/01/31 12:01:14;;;;;;;2.00;1.43;;;-3.20;99.90;;;;;;5029969;28;20324;-82
2021/01/31 12:03:42;;;;;;;3.00;2.33;;;-3.30;99.90;;;;;;5031217;28;20182;-78
2021/01/31 12:06:07;;;;;;;2.13;1.73;;;-3.50;99.90;;;;;;5030880;28;20218;-77
2021/01/31 12:08:33;;;;;;;2.40;1.47;;;-3.70;99.90;;;;;;5032355;28;20190;-80
2021/01/31 12:10:58;;;;;;;1.93;1.30;;;-3.60;99.90;;;;;;5032281;28;20214;-80
2021/01/31 12:13:24;;;;;;;1.23;1.13;;;-3.60;99.90;;;;;;5029758;28;20186;-78
2021/01/31 12:15:50;;;;;;;2.07;0.90;;;-3.70;99.90;;;;;;5029550;28;20202;-78
2021/01/31 12:18:15;;;;;;;1.77;1.53;;;-3.70;99.90;;;;;;5029699;28;20187;-81
2021/01/31 12:20:41;;;;;;;3.30;2.23;;;-3.60;99.90;;;;;;5029673;28;20186;-81
2021/01/31 12:23:06;;;;;;;2.33;1.73;;;-3.50;99.90;;;;;;5027849;28;20258;-80
2021/01/31 12:25:32;;;;;;;1.70;1.43;;;-3.30;99.90;;;;;;5026924;28;20703;-77
2021/01/31 12:27:58;;;;;;;2.27;1.50;;;-3.20;99.90;;;;;;5026528;28;20233;-82
2021/01/31 12:30:29;;;;;;;1.47;1.03;;;-3.10;99.90;;;;;;5027794;28;20248;-82
2021/01/31 12:32:58;;;;;;;1.07;0.80;;;-2.90;99.90;;;;;;5026159;28;20826;-79
2021/01/31 12:35:25;;;;;;;1.07;1.00;;;-2.90;99.90;;;;;;5027262;28;20202;-79
2021/01/31 12:37:51;;;;;;;3.63;2.03;;;-2.90;99.90;;;;;;5028350;28;20216;-80
2021/01/31 12:40:18;;;;;;;1.93;1.63;;;-2.70;99.90;;;;;;5028315;28;20203;-82
2021/01/31 12:42:43;;;;;;;2.03;1.67;;;-2.70;99.90;;;;;;5026375;28;20186;-78
2021/01/31 12:45:10;;;;;;;2.90;2.50;;;-2.60;99.90;;;;;;5027432;28;20202;-79
2021/01/31 12:47:36;;;;;;;1.70;1.60;;;-2.60;99.90;;;;;;5026742;28;20186;-77
2021/01/31 12:50:05;;;;;;;2.13;1.70;;;-2.60;99.90;;;;;;5026657;28;20182;-80
2021/01/31 12:52:30;;;;;;;2.77;1.73;;;-2.70;99.90;;;;;;5043222;28;20211;-80
2021/01/31 12:54:56;;;;;;;2.50;1.90;;;-2.60;99.90;;;;;;5027463;28;20229;-78
2021/01/31 12:57:22;;;;;;;2.77;1.50;;;-2.50;99.90;;;;;;5027658;28;20179;-82
2021/01/31 12:59:47;;;;;;;1.40;1.30;;;-2.40;99.90;;;;;;5028325;28;20171;-79
2021/01/31 13:02:13;;;;;;;3.83;2.90;;;-2.40;99.90;;;;;;5028446;28;20203;-78
2021/01/31 13:04:42;;;;;;;2.70;2.50;;;-2.50;99.90;;;;;;5027252;28;20300;-78
2021/01/31 13:07:08;;;;;;;2.93;2.30;;;-2.60;99.90;;;;;;5026908;28;20198;-80
2021/01/31 13:09:34;;;;;;;3.60;2.33;;;-2.60;99.90;;;;;;5027986;28;20179;-82
2021/01/31 13:11:59;;;;;;;2.20;1.67;;;-2.70;99.90;;;;;;5026658;28;20218;-80
2021/01/31 13:14:26;;;;;;;3.93;2.67;;;-2.70;99.90;;;;;;5027884;28;20265;-80
2021/01/31 13:16:53;;;;;;;1.83;1.33;;;-2.80;99.90;;;;;;5026732;28;20207;-80